createdAt,value
2019-05-29T00:00:39.615Z,12.50
2019-05-29T00:03:10.439Z,12.30
2019-05-29T00:05:40.115Z,12.20
2019-05-29T00:08:10.400Z,12.20
2019-05-29T00:10:39.900Z,12.30
2019-05-29T00:13:10.269Z,12.30
2019-05-29T00:15:39.873Z,12.20
2019-05-29T00:18:10.362Z,12.10
2019-05-29T00:20:39.921Z,12.10
2019-05-29T00:23:10.466Z,12.10
2019-05-29T00:25:40.028Z,12.10
2019-05-29T00:28:10.545Z,12.10
2019-05-29T00:30:40.017Z,12.20
2019-05-29T00:33:10.111Z,12.10
2019-05-29T00:35:39.703Z,12.00
2019-05-29T00:38:09.143Z,12.10
2019-05-29T00:40:38.613Z,12.10
2019-05-29T00:43:09.147Z,12.00
2019-05-29T00:45:38.713Z,11.90
2019-05-29T00:48:08.195Z,11.90
2019-05-29T00:50:37.680Z,11.90
2019-05-29T00:53:08.082Z,12.00
2019-05-29T00:55:37.725Z,11.90
2019-05-29T00:58:07.179Z,11.90
2019-05-29T01:00:36.700Z,11.80
2019-05-29T01:03:06.158Z,11.80
2019-05-29T01:05:35.598Z,11.90
2019-05-29T01:08:05.083Z,11.70
2019-05-29T01:10:34.539Z,11.80
2019-05-29T01:13:04.091Z,11.90
2019-05-29T01:15:33.563Z,11.80
2019-05-29T01:18:03.098Z,11.80
2019-05-29T01:20:32.528Z,11.80
2019-05-29T01:23:01.979Z,11.80
2019-05-29T01:25:31.419Z,11.90
2019-05-29T01:28:00.964Z,11.80
2019-05-29T01:30:30.444Z,11.90
2019-05-29T01:32:59.904Z,11.90
2019-05-29T01:35:29.373Z,11.90
2019-05-29T01:37:58.839Z,11.90
2019-05-29T01:40:29.684Z,11.90
2019-05-29T01:42:59.344Z,11.90
2019-05-29T01:45:28.796Z,11.90
2019-05-29T01:47:58.237Z,12.00
2019-05-29T01:50:27.968Z,12.20
2019-05-29T01:52:57.442Z,12.00
2019-05-29T01:55:27.981Z,12.20
2019-05-29T01:57:57.538Z,12.20
2019-05-29T02:00:28.468Z,12.10
2019-05-29T02:02:58.215Z,12.10
2019-05-29T02:05:28.304Z,12.00
2019-05-29T02:07:57.843Z,12.00
2019-05-29T02:10:27.291Z,11.90
2019-05-29T02:12:56.928Z,11.90
2019-05-29T02:15:33.510Z,11.80
2019-05-29T02:17:57.605Z,11.80
2019-05-29T02:20:27.258Z,11.90
2019-05-29T02:22:56.724Z,12.00
2019-05-29T02:25:26.421Z,11.80
2019-05-29T02:27:55.859Z,11.80
2019-05-29T02:30:28.574Z,11.80
2019-05-29T02:32:56.848Z,11.90
2019-05-29T02:35:28.738Z,11.80
2019-05-29T02:37:57.512Z,11.70
2019-05-29T02:40:29.457Z,11.70
2019-05-29T02:42:58.165Z,11.60
2019-05-29T02:45:50.857Z,11.60
2019-05-29T02:47:58.830Z,10.70
2019-05-29T02:50:29.331Z,11.70
2019-05-29T02:52:59.512Z,11.70
2019-05-29T02:55:30.432Z,11.80
2019-05-29T02:58:00.317Z,11.50
2019-05-29T03:00:54.307Z,11.60
2019-05-29T03:03:26.527Z,11.50
2019-05-29T03:05:56.910Z,11.50
2019-05-29T03:08:29.638Z,11.60
2019-05-29T03:10:58.572Z,11.50
2019-05-29T03:13:29.829Z,11.60
2019-05-29T03:16:10.550Z,11.40
2019-05-29T03:18:32.397Z,11.40
2019-05-29T03:21:01.830Z,11.30
2019-05-29T03:23:33.343Z,11.30
2019-05-29T03:26:02.443Z,11.40
2019-05-29T03:28:33.016Z,11.20
2019-05-29T03:31:03.146Z,11.10
2019-05-29T03:33:43.110Z,11.10
2019-05-29T03:36:03.993Z,11.40
2019-05-29T03:38:34.885Z,11.20
2019-05-29T03:41:04.742Z,11.30
2019-05-29T03:43:36.031Z,11.30
2019-05-29T03:46:05.475Z,11.00
2019-05-29T03:48:34.964Z,11.30
2019-05-29T03:51:04.403Z,11.40
2019-05-29T03:53:36.180Z,11.20
2019-05-29T03:56:05.079Z,11.10
2019-05-29T03:58:35.140Z,11.20
2019-05-29T04:01:05.441Z,11.00
2019-05-29T04:03:36.069Z,11.00
2019-05-29T04:06:06.743Z,10.90
2019-05-29T04:08:38.228Z,10.90
2019-05-29T04:11:08.481Z,11.10
2019-05-29T04:13:39.145Z,11.00
2019-05-29T04:16:11.071Z,11.00
2019-05-29T04:18:42.117Z,10.90
2019-05-29T04:21:13.080Z,10.90
2019-05-29T04:23:47.175Z,11.10
2019-05-29T04:26:19.911Z,11.10
2019-05-29T04:28:50.498Z,11.00
2019-05-29T04:31:19.959Z,11.10
2019-05-29T04:33:49.381Z,11.00
2019-05-29T04:36:18.831Z,10.80
2019-05-29T04:38:48.316Z,10.80
2019-05-29T04:41:17.749Z,10.90
2019-05-29T04:43:47.187Z,11.10
2019-05-29T04:46:16.741Z,10.90
2019-05-29T04:48:46.216Z,10.90
2019-05-29T04:51:15.668Z,11.10
2019-05-29T04:53:45.138Z,11.90
2019-05-29T04:56:14.630Z,11.50
2019-05-29T04:58:44.077Z,11.50
2019-05-29T05:01:13.550Z,11.30
2019-05-29T05:03:42.993Z,11.70
2019-05-29T05:06:12.437Z,11.50
2019-05-29T05:08:41.917Z,11.40
2019-05-29T05:11:12.194Z,11.50
2019-05-29T05:13:41.677Z,11.30
2019-05-29T05:16:11.231Z,11.10
2019-05-29T05:18:40.658Z,11.40
2019-05-29T05:21:10.131Z,11.40
2019-05-29T05:23:40.551Z,11.30
2019-05-29T05:26:10.409Z,11.20
2019-05-29T05:28:44.026Z,11.20
2019-05-29T05:31:11.067Z,11.10
2019-05-29T05:33:40.968Z,11.20
2019-05-29T05:36:10.630Z,11.10
2019-05-29T05:38:41.086Z,11.20
2019-05-29T05:41:10.795Z,11.20
2019-05-29T05:43:41.433Z,11.20
2019-05-29T05:46:11.178Z,11.10
2019-05-29T05:48:41.544Z,11.40
2019-05-29T05:51:11.191Z,11.50
2019-05-29T05:53:41.703Z,11.40
2019-05-29T05:56:11.510Z,11.40
2019-05-29T05:58:42.207Z,11.30
2019-05-29T06:01:12.289Z,11.50
2019-05-29T06:03:42.407Z,11.40
2019-05-29T06:06:12.177Z,11.50
2019-05-29T06:08:42.472Z,11.40
2019-05-29T06:11:12.375Z,11.40
2019-05-29T06:13:42.782Z,11.60
2019-05-29T06:16:12.500Z,11.80
2019-05-29T06:18:43.088Z,12.00
2019-05-29T06:21:13.030Z,11.80
2019-05-29T06:23:43.434Z,12.20
2019-05-29T06:26:13.899Z,12.20
2019-05-29T06:28:43.716Z,12.10
2019-05-29T06:31:13.315Z,11.90
2019-05-29T06:33:43.927Z,12.10
2019-05-29T06:36:13.645Z,12.30
2019-05-29T06:38:44.580Z,12.20
2019-05-29T06:41:14.603Z,12.80
2019-05-29T06:43:44.483Z,12.80
2019-05-29T06:46:14.226Z,12.60
2019-05-29T06:48:56.456Z,12.60
2019-05-29T06:51:14.893Z,12.50
2019-05-29T06:53:44.524Z,12.70
2019-05-29T06:56:14.334Z,12.40
2019-05-29T06:58:44.433Z,12.70
2019-05-29T07:01:14.005Z,12.40
2019-05-29T07:03:43.939Z,13.00
2019-05-29T07:06:13.730Z,12.90
2019-05-29T07:08:47.930Z,12.90
2019-05-29T07:11:14.370Z,13.60
2019-05-29T07:13:47.556Z,13.30
2019-05-29T07:16:15.120Z,13.20
2019-05-29T07:19:20.570Z,13.20
2019-05-29T07:21:15.771Z,12.90
2019-05-29T07:23:47.925Z,13.10
2019-05-29T07:26:16.402Z,12.70
2019-05-29T07:29:05.630Z,13.00
2019-05-29T07:31:17.176Z,13.60
2019-05-29T07:33:47.394Z,13.50
2019-05-29T07:36:16.981Z,13.40
2019-05-29T07:39:02.319Z,13.60
2019-05-29T07:41:17.642Z,13.90
2019-05-29T07:43:48.121Z,13.80
2019-05-29T07:46:17.853Z,14.30
2019-05-29T07:48:48.515Z,14.30
2019-05-29T07:51:18.504Z,14.30
2019-05-29T07:53:48.824Z,14.00
2019-05-29T07:56:22.724Z,13.80
2019-05-29T07:59:01.670Z,14.20
2019-05-29T08:01:20.869Z,13.70
2019-05-29T08:03:50.385Z,14.20
2019-05-29T08:06:19.823Z,14.00
2019-05-29T08:08:49.612Z,13.90
2019-05-29T08:11:19.108Z,14.00
2019-05-29T08:13:49.870Z,14.20
2019-05-29T08:16:19.604Z,14.90
2019-05-29T08:18:52.781Z,15.10
2019-05-29T08:21:20.355Z,15.10
2019-05-29T08:23:50.829Z,14.80
2019-05-29T08:26:20.465Z,14.80
2019-05-29T08:28:51.103Z,15.00
2019-05-29T08:31:21.223Z,14.70
2019-05-29T08:33:51.268Z,14.60
2019-05-29T08:36:21.062Z,14.40
2019-05-29T08:38:51.792Z,14.80
2019-05-29T08:41:21.473Z,15.30
2019-05-29T08:43:51.043Z,15.70
2019-05-29T08:46:20.581Z,15.50
2019-05-29T08:48:50.197Z,15.00
2019-05-29T08:51:19.739Z,15.00
2019-05-29T08:53:51.847Z,15.40
2019-05-29T08:56:20.416Z,15.40
2019-05-29T08:58:50.681Z,15.70
2019-05-29T09:01:20.404Z,15.60
2019-05-29T09:03:51.243Z,15.80
2019-05-29T09:06:21.351Z,16.30
2019-05-29T09:08:54.021Z,16.30
2019-05-29T09:11:22.184Z,16.30
2019-05-29T09:13:51.718Z,16.50
2019-05-29T09:16:21.875Z,16.50
2019-05-29T09:18:51.546Z,16.60
2019-05-29T09:21:20.981Z,16.70
2019-05-29T09:23:50.461Z,16.80
2019-05-29T09:26:23.910Z,16.50
2019-05-29T09:28:51.231Z,15.80
2019-05-29T09:31:21.917Z,16.20
2019-05-29T09:33:51.738Z,15.70
2019-05-29T09:36:22.599Z,16.10
2019-05-29T09:38:52.517Z,16.20
2019-05-29T09:41:23.541Z,16.40
2019-05-29T09:43:58.635Z,16.40
2019-05-29T09:46:25.771Z,16.20
2019-05-29T09:48:55.488Z,16.40
2019-05-29T09:51:24.870Z,16.90
2019-05-29T09:53:55.859Z,17.10
2019-05-29T09:56:25.576Z,16.60
2019-05-29T09:58:56.370Z,16.40
2019-05-29T10:01:26.257Z,16.30
2019-05-29T10:03:57.536Z,16.30
2019-05-29T10:06:26.837Z,16.40
2019-05-29T10:08:57.832Z,16.10
2019-05-29T10:11:27.541Z,16.20
2019-05-29T10:13:58.641Z,16.20
2019-05-29T10:16:28.427Z,16.00
2019-05-29T10:18:59.801Z,15.80
2019-05-29T10:24:02.067Z,16.70
2019-05-29T10:26:31.352Z,16.40
2019-05-29T10:27:51.682Z,16.40
2019-05-29T10:29:08.379Z,16.20
2019-05-29T10:31:32.023Z,16.30
2019-05-29T10:34:02.035Z,16.90
2019-05-29T10:36:31.532Z,16.70
2019-05-29T10:39:01.181Z,16.60
2019-05-29T10:41:30.642Z,16.80
2019-05-29T10:44:00.101Z,17.00
2019-05-29T10:46:29.559Z,17.10
2019-05-29T10:48:59.019Z,17.20
2019-05-29T10:51:28.545Z,17.30
2019-05-29T10:53:59.200Z,17.00
2019-05-29T10:56:28.857Z,17.40
2019-05-29T10:59:00.016Z,17.70
2019-05-29T11:01:29.674Z,17.70
2019-05-29T11:03:59.167Z,17.30
2019-05-29T11:06:28.634Z,17.10
2019-05-29T11:08:58.120Z,17.40
2019-05-29T11:11:27.619Z,17.60
2019-05-29T11:13:57.219Z,17.30
2019-05-29T11:16:26.762Z,17.60
2019-05-29T11:18:57.330Z,17.80
2019-05-29T11:21:27.120Z,17.70
2019-05-29T11:23:58.052Z,17.10
2019-05-29T11:26:27.676Z,17.80
2019-05-29T11:28:58.596Z,17.80
2019-05-29T11:31:28.360Z,18.10
2019-05-29T11:33:59.090Z,17.60
2019-05-29T11:36:28.775Z,18.00
2019-05-29T11:39:02.977Z,17.40
2019-05-29T11:41:29.619Z,17.70
2019-05-29T11:43:59.074Z,17.30
2019-05-29T11:46:28.551Z,17.00
2019-05-29T11:48:59.251Z,17.40
2019-05-29T11:51:28.861Z,18.20
2019-05-29T11:53:59.464Z,18.40
2019-05-29T11:56:29.203Z,18.20
2019-05-29T11:58:59.036Z,18.30
2019-05-29T12:01:28.735Z,18.10
2019-05-29T12:04:18.694Z,18.20
2019-05-29T12:06:29.352Z,18.50
2019-05-29T12:08:59.833Z,18.60
2019-05-29T12:11:29.480Z,18.50
2019-05-29T12:14:00.561Z,18.90
2019-05-29T12:16:30.086Z,19.10
2019-05-29T12:18:59.905Z,19.10
2019-05-29T12:21:29.373Z,19.10
2019-05-29T12:23:58.824Z,19.20
2019-05-29T12:26:28.257Z,19.30
2019-05-29T12:29:04.878Z,18.50
2019-05-29T12:31:28.960Z,18.00
2019-05-29T12:34:04.988Z,17.90
2019-05-29T12:36:42.474Z,18.30
2019-05-29T12:39:11.937Z,18.90
2019-05-29T12:41:41.388Z,19.40
2019-05-29T12:44:10.842Z,19.30
2019-05-29T12:46:40.282Z,19.30
2019-05-29T12:49:09.891Z,19.20
2019-05-29T12:51:39.365Z,18.90
2019-05-29T12:54:08.840Z,19.30
2019-05-29T12:56:38.278Z,19.70
2019-05-29T12:59:07.921Z,19.80
2019-05-29T13:01:37.395Z,19.80
2019-05-29T13:04:07.048Z,20.00
2019-05-29T13:06:36.487Z,19.80
2019-05-29T13:09:08.729Z,19.80
2019-05-29T13:11:38.175Z,19.10
2019-05-29T13:14:07.637Z,19.50
2019-05-29T13:16:37.075Z,19.70
2019-05-29T13:19:06.558Z,19.00
2019-05-29T13:21:36.002Z,18.90
2019-05-29T13:24:10.887Z,19.30
2019-05-29T13:26:36.919Z,19.30
2019-05-29T13:29:06.474Z,19.40
2019-05-29T13:31:35.924Z,19.90
2019-05-29T13:34:07.153Z,19.80
2019-05-29T13:36:36.718Z,19.60
2019-05-29T13:39:29.864Z,19.60
2019-05-29T13:42:03.161Z,19.80
2019-05-29T13:44:29.387Z,19.60
2019-05-29T13:46:59.878Z,19.70
2019-05-29T13:49:29.362Z,18.70
2019-05-29T13:51:59.157Z,19.50
2019-05-29T13:54:28.721Z,20.10
2019-05-29T13:56:59.619Z,20.50
2019-05-29T13:59:29.353Z,20.60
2019-05-29T14:02:00.250Z,19.10
2019-05-29T14:04:29.866Z,19.40
2019-05-29T14:07:00.340Z,19.40
2019-05-29T14:09:29.960Z,19.70
2019-05-29T14:12:00.856Z,19.90
2019-05-29T14:14:30.287Z,19.90
2019-05-29T14:17:00.367Z,19.90
2019-05-29T14:19:30.130Z,20.10
2019-05-29T14:22:01.055Z,20.40
2019-05-29T14:24:30.784Z,20.50
2019-05-29T14:27:01.605Z,21.20
2019-05-29T14:29:31.138Z,21.60
2019-05-29T14:32:01.022Z,21.00
2019-05-29T14:34:30.572Z,20.50
2019-05-29T14:37:02.727Z,19.50
2019-05-29T14:39:31.197Z,20.60
2019-05-29T14:42:01.702Z,19.60
2019-05-29T14:44:31.230Z,20.30
2019-05-29T14:47:01.785Z,20.80
2019-05-29T14:49:31.438Z,20.50
2019-05-29T14:52:00.893Z,20.50
2019-05-29T14:54:41.080Z,20.60
2019-05-29T14:57:09.320Z,20.70
2019-05-29T14:59:32.814Z,20.70
2019-05-29T15:02:06.213Z,21.60
2019-05-29T15:04:33.435Z,20.80
2019-05-29T15:07:03.723Z,20.80
2019-05-29T15:09:33.340Z,20.70
2019-05-29T15:12:03.857Z,21.00
2019-05-29T15:14:33.479Z,21.40
2019-05-29T15:17:02.980Z,21.60
2019-05-29T15:19:32.429Z,22.00
2019-05-29T15:22:02.017Z,22.10
2019-05-29T15:24:31.457Z,21.40
2019-05-29T15:27:00.912Z,20.80
2019-05-29T15:29:30.402Z,20.40
2019-05-29T15:31:59.839Z,20.60
2019-05-29T15:34:29.299Z,20.40
2019-05-29T15:36:58.758Z,21.30
2019-05-29T15:39:28.227Z,21.40
2019-05-29T15:41:57.721Z,21.00
2019-05-29T15:44:27.209Z,21.10
2019-05-29T15:46:56.686Z,20.40
2019-05-29T15:49:26.088Z,20.90
2019-05-29T15:51:55.555Z,20.40
2019-05-29T15:54:25.019Z,20.50
2019-05-29T15:56:54.446Z,19.80
2019-05-29T15:59:23.896Z,20.30
2019-05-29T16:01:53.334Z,20.80
2019-05-29T16:04:23.814Z,21.10
2019-05-29T16:06:55.065Z,21.20
2019-05-29T16:09:24.457Z,21.20
2019-05-29T16:11:53.916Z,21.00
2019-05-29T16:14:23.389Z,21.20
2019-05-29T16:16:52.842Z,20.70
2019-05-29T16:19:22.623Z,20.50
2019-05-29T16:21:52.098Z,20.40
2019-05-29T16:24:21.551Z,20.60
2019-05-29T16:26:51.009Z,19.60
2019-05-29T16:29:20.529Z,20.70
2019-05-29T16:31:50.008Z,19.70
2019-05-29T16:34:20.441Z,20.60
2019-05-29T16:36:50.652Z,20.50
2019-05-29T16:39:21.431Z,19.80
2019-05-29T16:41:51.260Z,20.80
2019-05-29T16:44:27.322Z,20.90
2019-05-29T16:46:51.927Z,20.90
2019-05-29T16:49:21.766Z,21.00
2019-05-29T16:51:52.583Z,20.90
2019-05-29T16:54:23.069Z,20.90
2019-05-29T16:56:52.805Z,20.80
2019-05-29T16:59:24.940Z,20.50
2019-05-29T17:01:53.459Z,19.80
2019-05-29T17:04:23.882Z,20.30
2019-05-29T17:06:53.560Z,21.10
2019-05-29T17:09:24.426Z,21.20
2019-05-29T17:11:54.091Z,20.50
2019-05-29T17:14:24.758Z,20.70
2019-05-29T17:16:54.693Z,21.20
2019-05-29T17:19:25.320Z,21.50
2019-05-29T17:21:55.096Z,21.70
2019-05-29T17:24:25.080Z,21.80
2019-05-29T17:26:54.836Z,21.70
2019-05-29T17:29:25.106Z,20.50
2019-05-29T17:31:54.860Z,21.00
2019-05-29T17:34:25.222Z,21.60
2019-05-29T17:36:54.964Z,21.30
2019-05-29T17:39:25.164Z,21.00
2019-05-29T17:41:54.725Z,21.00
2019-05-29T17:44:24.490Z,21.20
2019-05-29T17:46:55.156Z,21.50
2019-05-29T17:49:32.795Z,21.70
2019-05-29T17:51:55.870Z,21.30
2019-05-29T17:54:26.100Z,21.20
2019-05-29T17:56:55.890Z,21.10
2019-05-29T17:59:26.332Z,21.40
2019-05-29T18:01:55.892Z,21.50
2019-05-29T18:04:26.638Z,21.40
2019-05-29T18:06:56.719Z,21.50
2019-05-29T18:09:28.811Z,21.60
2019-05-29T18:11:57.471Z,21.70
2019-05-29T18:14:28.927Z,21.50
2019-05-29T18:16:58.434Z,21.40
2019-05-29T18:19:32.062Z,21.20
2019-05-29T18:22:03.808Z,21.20
2019-05-29T18:24:33.255Z,21.20
2019-05-29T18:27:02.705Z,21.00
2019-05-29T18:29:32.196Z,21.00
2019-05-29T18:32:01.642Z,21.00
2019-05-29T18:34:31.093Z,21.00
2019-05-29T18:37:02.598Z,20.90
2019-05-29T18:39:32.502Z,20.90
2019-05-29T18:42:02.065Z,20.70
2019-05-29T18:44:31.595Z,20.70
2019-05-29T18:47:01.049Z,20.80
2019-05-29T18:49:30.501Z,20.70
2019-05-29T18:52:01.210Z,20.60
2019-05-29T18:54:32.947Z,20.60
2019-05-29T18:57:14.648Z,20.60
2019-05-29T18:59:33.068Z,20.50
2019-05-29T19:02:02.501Z,20.50
2019-05-29T19:04:32.157Z,20.40
2019-05-29T19:07:01.610Z,20.20
2019-05-29T19:09:31.976Z,20.20
2019-05-29T19:12:01.742Z,20.20
2019-05-29T19:14:32.385Z,20.10
2019-05-29T19:17:02.057Z,20.10
2019-05-29T19:19:32.494Z,20.00
2019-05-29T19:22:02.043Z,20.00
2019-05-29T19:24:32.705Z,19.90
2019-05-29T19:27:02.638Z,19.70
2019-05-29T19:29:33.317Z,19.10
2019-05-29T19:32:03.048Z,18.90
2019-05-29T19:34:33.669Z,18.60
2019-05-29T19:37:04.734Z,18.30
2019-05-29T19:39:34.281Z,18.10
2019-05-29T19:42:03.699Z,18.00
2019-05-29T19:44:34.442Z,17.70
2019-05-29T19:47:04.057Z,17.70
2019-05-29T19:49:33.521Z,17.40
2019-05-29T19:52:02.973Z,17.20
2019-05-29T19:54:33.583Z,17.40
2019-05-29T19:57:03.185Z,17.60
2019-05-29T19:59:32.630Z,17.50
2019-05-29T20:02:02.089Z,17.40
2019-05-29T20:04:32.648Z,17.10
2019-05-29T20:07:02.219Z,17.20
2019-05-29T20:09:32.217Z,17.20
2019-05-29T20:12:02.597Z,16.90
2019-05-29T20:14:32.084Z,17.00
2019-05-29T20:17:01.567Z,16.90
2019-05-29T20:19:34.488Z,17.10
2019-05-29T20:22:02.223Z,17.10
2019-05-29T20:24:32.710Z,17.30
2019-05-29T20:27:02.405Z,17.10
2019-05-29T20:29:32.393Z,16.90
2019-05-29T20:32:02.039Z,16.60
2019-05-29T20:34:32.696Z,16.00
2019-05-29T20:37:02.299Z,15.80
2019-05-29T20:39:32.973Z,15.70
2019-05-29T20:42:02.833Z,15.50
2019-05-29T20:44:32.627Z,15.40
2019-05-29T20:47:02.809Z,15.30
2019-05-29T20:49:32.253Z,15.40
2019-05-29T20:52:01.711Z,15.70
2019-05-29T20:54:31.600Z,15.30
2019-05-29T20:57:02.782Z,15.00
2019-05-29T20:59:32.266Z,14.90
2019-05-29T21:02:01.771Z,15.10
2019-05-29T21:04:32.928Z,15.00
2019-05-29T21:07:02.485Z,14.80
2019-05-29T21:09:32.920Z,14.90
2019-05-29T21:12:04.216Z,14.80
2019-05-29T21:14:33.749Z,14.70
2019-05-29T21:17:03.253Z,14.60
2019-05-29T21:19:33.914Z,14.50
2019-05-29T21:22:03.541Z,14.40
2019-05-29T21:24:34.445Z,14.40
2019-05-29T21:27:04.107Z,14.70
2019-05-29T21:29:33.551Z,14.50
2019-05-29T21:32:03.114Z,14.40
2019-05-29T21:34:32.629Z,14.20
2019-05-29T21:37:02.096Z,14.20
2019-05-29T21:39:32.348Z,14.00
2019-05-29T21:42:01.829Z,13.90
2019-05-29T21:44:31.284Z,13.90
2019-05-29T21:47:00.766Z,14.20
2019-05-29T21:49:31.500Z,14.10
2019-05-29T21:52:01.159Z,14.70
2019-05-29T21:54:30.586Z,14.30
2019-05-29T21:57:00.049Z,13.80
2019-05-29T21:59:29.497Z,13.70
2019-05-29T22:01:59.022Z,14.10
2019-05-29T22:04:28.498Z,13.70
2019-05-29T22:06:58.023Z,13.60
2019-05-29T22:09:27.570Z,13.50
2019-05-29T22:11:57.022Z,13.50
2019-05-29T22:14:26.767Z,13.40
2019-05-29T22:16:57.196Z,13.30
2019-05-29T22:19:26.650Z,13.30
2019-05-29T22:21:57.093Z,13.00
2019-05-29T22:24:26.597Z,12.90
2019-05-29T22:26:57.252Z,12.80
2019-05-29T22:29:26.789Z,12.90
2019-05-29T22:31:57.496Z,12.80
2019-05-29T22:34:27.109Z,12.80
2019-05-29T22:36:57.505Z,12.60
2019-05-29T22:39:27.068Z,12.60
2019-05-29T22:41:57.589Z,12.80
2019-05-29T22:44:27.078Z,12.60
2019-05-29T22:46:57.601Z,12.40
2019-05-29T22:49:27.183Z,12.20
2019-05-29T22:51:57.758Z,12.10
2019-05-29T22:54:27.293Z,12.40
2019-05-29T22:56:57.877Z,12.40
2019-05-29T22:59:32.078Z,12.00
2019-05-29T23:01:58.667Z,10.40
2019-05-29T23:04:28.137Z,12.40
2019-05-29T23:06:58.359Z,12.80
2019-05-29T23:09:27.832Z,12.40
2019-05-29T23:11:58.317Z,11.90
2019-05-29T23:14:27.785Z,11.50
2019-05-29T23:16:58.475Z,11.50
2019-05-29T23:19:28.036Z,11.40
2019-05-29T23:21:58.994Z,11.50
2019-05-29T23:24:28.735Z,11.60
2019-05-29T23:26:58.756Z,11.40
2019-05-29T23:29:28.349Z,11.20
2019-05-29T23:31:58.910Z,11.40
2019-05-29T23:34:28.505Z,11.30
2019-05-29T23:36:59.098Z,11.30
2019-05-29T23:39:28.686Z,11.10
2019-05-29T23:41:59.316Z,11.20
2019-05-29T23:44:28.880Z,11.80
2019-05-29T23:46:59.497Z,12.60
2019-05-29T23:49:29.083Z,12.10
2019-05-29T23:51:59.645Z,12.20
2019-05-29T23:54:29.321Z,12.90
2019-05-29T23:56:59.897Z,12.40
2019-05-29T23:59:29.399Z,13.00
